Time,TemperatureF,DewpointF,PressureIn,WindDirection,WindDirectionDegrees,WindSpeedMPH,WindSpeedGustMPH,Humidity,HourlyPrecipIn,Conditions,Clouds,dailyrainin,SoftwareType,DateUTC
2013-04-23 00:03:00,49.3,42.0,30.10,SSE,165,0.0,0.0,76,0.00,,,0.00,weatherlink.com 1.10,2013-04-23 04:03:00,
2013-04-23 00:18:00,48.8,42.0,30.10,SSE,165,0.0,0.0,76,0.00,,,0.00,weatherlink.com 1.10,2013-04-23 04:18:00,
2013-04-23 00:33:00,48.4,42.0,30.10,SSE,165,0.0,0.0,78,0.00,,,0.00,weatherlink.com 1.10,2013-04-23 04:33:00,
2013-04-23 00:48:00,47.9,42.0,30.10,SSE,165,0.0,0.0,79,0.00,,,0.00,weatherlink.com 1.10,2013-04-23 04:48:00,
2013-04-23 01:03:00,47.5,42.0,30.10,SSE,165,0.0,0.0,80,0.00,,,0.00,weatherlink.com 1.10,2013-04-23 05:03:00,
2013-04-23 01:18:00,47.3,41.0,30.10,SSE,165,0.0,0.0,80,0.00,,,0.00,weatherlink.com 1.10,2013-04-23 05:18:00,
2013-04-23 01:33:00,46.8,42.0,30.10,SSE,165,0.0,0.0,82,0.00,,,0.00,weatherlink.com 1.10,2013-04-23 05:33:00,
2013-04-23 01:49:00,46.5,42.0,30.09,SSE,165,0.0,0.0,83,0.00,,,0.00,weatherlink.com 1.10,2013-04-23 05:49:00,
2013-04-23 02:04:00,46.3,42.0,30.10,SSE,165,0.0,0.0,84,0.00,,,0.00,weatherlink.com 1.10,2013-04-23 06:04:00,
2013-04-23 02:19:00,46.2,42.0,30.09,SSE,165,0.0,0.0,84,0.00,,,0.00,weatherlink.com 1.10,2013-04-23 06:19:00,
2013-04-23 02:34:00,46.1,42.0,30.08,SSE,165,0.0,0.0,85,0.00,,,0.00,weatherlink.com 1.10,2013-04-23 06:34:00,
2013-04-23 02:49:00,46.0,42.0,30.08,SSE,165,0.0,0.0,85,0.00,,,0.00,weatherlink.com 1.10,2013-04-23 06:49:00,
2013-04-23 03:04:00,46.0,42.0,30.08,SSE,165,0.0,0.0,85,0.00,,,0.00,weatherlink.com 1.10,2013-04-23 07:04:00,
2013-04-23 03:19:00,45.9,42.0,30.07,SSE,165,0.0,0.0,86,0.00,,,0.00,weatherlink.com 1.10,2013-04-23 07:19:00,
2013-04-23 03:34:00,46.3,43.0,30.06,SSE,165,0.0,0.0,87,0.00,,,0.00,weatherlink.com 1.10,2013-04-23 07:34:00,
2013-04-23 03:49:00,47.6,43.0,30.05,SSE,165,1.0,1.0,83,0.00,,,0.00,weatherlink.com 1.10,2013-04-23 07:49:00,
2013-04-23 04:04:00,50.9,43.0,30.04,SSE,165,1.0,2.0,73,0.00,,,0.00,weatherlink.com 1.10,2013-04-23 08:04:00,
2013-04-23 04:19:00,52.3,43.0,30.04,SSE,165,0.0,2.0,71,0.00,,,0.00,weatherlink.com 1.10,2013-04-23 08:19:00,
2013-04-23 04:34:00,50.8,43.0,30.04,SSE,165,0.0,1.0,75,0.00,,,0.00,weatherlink.com 1.10,2013-04-23 08:34:00,
2013-04-23 04:49:00,49.4,43.0,30.05,SSE,165,0.0,0.0,79,0.00,,,0.00,weatherlink.com 1.10,2013-04-23 08:49:00,
2013-04-23 05:04:00,48.6,43.0,30.05,SSE,165,1.0,2.0,80,0.00,,,0.00,weatherlink.com 1.10,2013-04-23 09:04:00,
2013-04-23 05:19:00,48.3,43.0,30.05,SSE,165,0.0,0.0,83,0.00,,,0.00,weatherlink.com 1.10,2013-04-23 09:19:00,
2013-04-23 05:34:00,47.9,43.0,30.05,SSE,165,0.0,0.0,82,0.00,,,0.00,weatherlink.com 1.10,2013-04-23 09:34:00,
2013-04-23 05:49:00,47.3,42.0,30.06,SSE,165,0.0,0.0,83,0.00,,,0.00,weatherlink.com 1.10,2013-04-23 09:49:00,
2013-04-23 06:04:00,47.0,43.0,30.07,SSE,165,0.0,0.0,86,0.00,,,0.00,weatherlink.com 1.10,2013-04-23 10:04:00,
2013-04-23 06:19:00,46.9,43.0,30.06,SSE,165,0.0,0.0,85,0.00,,,0.00,weatherlink.com 1.10,2013-04-23 10:19:00,
2013-04-23 06:34:00,46.9,43.0,30.05,SSE,165,0.0,0.0,87,0.00,,,0.00,weatherlink.com 1.10,2013-04-23 10:34:00,
2013-04-23 06:49:00,46.9,43.0,30.05,SSE,165,0.0,0.0,85,0.00,,,0.00,weatherlink.com 1.10,2013-04-23 10:49:00,
2013-04-23 07:04:00,47.1,43.0,30.04,SSE,165,0.0,0.0,84,0.00,,,0.00,weatherlink.com 1.10,2013-04-23 11:04:00,
2013-04-23 07:19:00,47.9,43.0,30.04,SSE,165,0.0,0.0,83,0.00,,,0.00,weatherlink.com 1.10,2013-04-23 11:19:00,
2013-04-23 07:34:00,48.4,43.0,30.04,SSE,165,0.0,0.0,82,0.00,,,0.00,weatherlink.com 1.10,2013-04-23 11:34:00,
2013-04-23 07:49:00,50.0,43.0,30.05,SSE,165,0.0,1.0,78,0.00,,,0.00,weatherlink.com 1.10,2013-04-23 11:49:00,
2013-04-23 08:04:00,51.6,45.0,30.05,SSE,165,1.0,2.0,78,0.00,,,0.00,weatherlink.com 1.10,2013-04-23 12:04:00,
2013-04-23 08:19:00,54.6,45.0,30.05,South,173,1.0,4.0,70,0.00,,,0.00,weatherlink.com 1.10,2013-04-23 12:19:00,
2013-04-23 08:34:00,56.6,46.0,30.05,South,173,3.0,6.0,67,0.00,,,0.00,weatherlink.com 1.10,2013-04-23 12:34:00,
2013-04-23 08:49:00,57.6,46.0,30.05,SSW,192,5.0,8.0,65,0.00,,,0.00,weatherlink.com 1.10,2013-04-23 12:49:00,
2013-04-23 09:04:00,58.6,47.0,30.05,SSE,164,8.0,10.0,65,0.00,,,0.00,weatherlink.com 1.10,2013-04-23 13:04:00,
2013-04-23 09:19:00,59.1,47.0,30.05,South,184,6.0,10.0,65,0.00,,,0.00,weatherlink.com 1.10,2013-04-23 13:19:00,
2013-04-23 09:34:00,60.0,48.0,30.04,SSW,209,5.0,9.0,65,0.00,,,0.00,weatherlink.com 1.10,2013-04-23 13:34:00,
2013-04-23 09:49:00,60.7,49.0,30.04,SSW,203,4.0,7.0,66,0.00,,,0.00,weatherlink.com 1.10,2013-04-23 13:49:00,
2013-04-23 10:04:00,61.5,50.0,30.04,SSW,206,5.0,9.0,65,0.00,,,0.00,weatherlink.com 1.10,2013-04-23 14:04:00,
2013-04-23 10:19:00,62.0,50.0,30.04,South,169,4.0,9.0,65,0.00,,,0.00,weatherlink.com 1.10,2013-04-23 14:19:00,
2013-04-23 10:34:00,62.8,50.0,30.04,SSE,168,4.0,8.0,64,0.00,,,0.00,weatherlink.com 1.10,2013-04-23 14:34:00,
2013-04-23 10:50:00,63.9,52.0,30.04,South,183,11.0,11.0,66,0.00,,,0.00,weatherlink.com 1.10,2013-04-23 14:50:00,
2013-04-23 11:05:00,64.1,52.0,30.05,South,191,5.0,11.0,65,0.00,,,0.00,weatherlink.com 1.10,2013-04-23 15:05:00,
2013-04-23 11:20:00,64.4,53.0,30.05,South,173,6.0,7.0,66,0.00,,,0.00,weatherlink.com 1.10,2013-04-23 15:20:00,
2013-04-23 11:35:00,64.8,54.0,30.04,South,182,4.0,10.0,67,0.00,,,0.00,weatherlink.com 1.10,2013-04-23 15:35:00,
2013-04-23 11:50:00,65.1,54.0,30.05,South,188,4.0,8.0,68,0.00,,,0.00,weatherlink.com 1.10,2013-04-23 15:50:00,
2013-04-23 12:05:00,64.9,54.0,30.04,SSW,213,6.0,8.0,67,0.00,,,0.00,weatherlink.com 1.10,2013-04-23 16:05:00,
2013-04-23 12:20:00,65.8,54.0,30.03,SSW,192,3.0,14.0,66,0.00,,,0.00,weatherlink.com 1.10,2013-04-23 16:20:00,
2013-04-23 12:35:00,66.3,55.0,30.03,South,170,4.0,18.0,67,0.00,,,0.00,weatherlink.com 1.10,2013-04-23 16:35:00,
2013-04-23 12:50:00,66.4,54.0,30.03,South,186,4.0,11.0,65,0.00,,,0.00,weatherlink.com 1.10,2013-04-23 16:50:00,
2013-04-23 13:05:00,66.6,55.0,30.03,SW,219,7.0,8.0,66,0.00,,,0.00,weatherlink.com 1.10,2013-04-23 17:05:00,
2013-04-23 13:20:00,66.0,54.0,30.03,South,183,5.0,10.0,66,0.00,,,0.00,weatherlink.com 1.10,2013-04-23 17:20:00,
2013-04-23 13:35:00,65.4,54.0,30.02,SSW,194,6.0,11.0,66,0.00,,,0.00,weatherlink.com 1.10,2013-04-23 17:35:00,
2013-04-23 13:50:00,65.2,54.0,30.02,SSW,195,4.0,9.0,67,0.00,,,0.00,weatherlink.com 1.10,2013-04-23 17:50:00,
2013-04-23 14:05:00,65.5,55.0,30.01,South,171,14.0,17.0,68,0.00,,,0.00,weatherlink.com 1.10,2013-04-23 18:05:00,
2013-04-23 14:20:00,65.9,54.0,30.00,SSE,160,10.0,14.0,66,0.00,,,0.00,weatherlink.com 1.10,2013-04-23 18:20:00,
2013-04-23 14:35:00,65.8,54.0,30.00,SW,214,15.0,15.0,67,0.00,,,0.00,weatherlink.com 1.10,2013-04-23 18:35:00,
2013-04-23 14:50:00,64.2,55.0,29.99,South,179,3.0,9.0,73,0.00,,,0.00,weatherlink.com 1.10,2013-04-23 18:50:00,
2013-04-23 15:05:00,63.3,55.0,29.98,South,184,2.0,9.0,75,0.00,,,0.00,weatherlink.com 1.10,2013-04-23 19:05:00,
2013-04-23 15:20:00,63.1,57.0,29.96,SW,221,1.0,2.0,79,0.00,,,0.00,weatherlink.com 1.10,2013-04-23 19:20:00,
2013-04-23 15:35:00,64.1,56.0,29.95,SSE,149,4.0,6.0,76,0.00,,,0.00,weatherlink.com 1.10,2013-04-23 19:35:00,
2013-04-23 15:50:00,65.7,55.0,29.95,SE,135,7.0,11.0,69,0.00,,,0.00,weatherlink.com 1.10,2013-04-23 19:50:00,
2013-04-23 16:05:00,66.1,54.0,29.93,SSE,149,4.0,12.0,66,0.00,,,0.00,weatherlink.com 1.10,2013-04-23 20:05:00,
2013-04-23 16:20:00,66.3,55.0,29.92,SSE,159,5.0,12.0,66,0.00,,,0.00,weatherlink.com 1.10,2013-04-23 20:20:00,
2013-04-23 16:35:00,66.2,54.0,29.91,South,169,8.0,16.0,66,0.00,,,0.00,weatherlink.com 1.10,2013-04-23 20:35:00,
2013-04-23 16:50:00,66.1,55.0,29.89,SSE,153,5.0,11.0,67,0.00,,,0.00,weatherlink.com 1.10,2013-04-23 20:50:00,
2013-04-23 17:05:00,65.8,54.0,29.88,South,178,8.0,14.0,67,0.01,,,0.01,weatherlink.com 1.10,2013-04-23 21:05:00,
2013-04-23 17:20:00,64.4,55.0,29.91,SSW,204,4.0,12.0,72,0.01,,,0.01,weatherlink.com 1.10,2013-04-23 21:20:00,
2013-04-23 17:35:00,64.8,56.0,29.91,SSE,167,4.0,9.0,73,0.01,,,0.01,weatherlink.com 1.10,2013-04-23 21:35:00,
2013-04-23 17:50:00,64.9,56.0,29.90,South,170,2.0,7.0,74,0.01,,,0.01,weatherlink.com 1.10,2013-04-23 21:50:00,
2013-04-23 18:05:00,64.7,56.0,29.89,South,175,4.0,9.0,73,0.00,,,0.01,weatherlink.com 1.10,2013-04-23 22:05:00,
2013-04-23 18:20:00,65.2,56.0,29.89,South,175,2.0,7.0,73,0.00,,,0.01,weatherlink.com 1.10,2013-04-23 22:20:00,
2013-04-23 18:35:00,66.0,56.0,29.87,SSE,160,4.0,6.0,69,0.00,,,0.01,weatherlink.com 1.10,2013-04-23 22:35:00,
2013-04-23 18:50:00,66.3,55.0,29.86,South,172,6.0,9.0,68,0.00,,,0.01,weatherlink.com 1.10,2013-04-23 22:50:00,
2013-04-23 19:06:00,66.8,55.0,29.85,South,184,5.0,11.0,66,0.00,,,0.01,weatherlink.com 1.10,2013-04-23 23:06:00,
2013-04-23 19:20:00,67.0,54.0,29.85,South,170,4.0,11.0,63,0.00,,,0.01,weatherlink.com 1.10,2013-04-23 23:20:00,
2013-04-23 19:35:00,67.1,54.0,29.84,SSE,156,6.0,10.0,63,0.00,,,0.01,weatherlink.com 1.10,2013-04-23 23:35:00,
2013-04-23 19:50:00,66.9,54.0,29.84,SSE,164,5.0,9.0,63,0.00,,,0.01,weatherlink.com 1.10,2013-04-23 23:50:00,
2013-04-23 20:05:00,66.9,53.0,29.84,SSE,167,5.0,7.0,62,0.00,,,0.01,weatherlink.com 1.10,2013-04-24 00:05:00,
2013-04-23 20:20:00,66.4,53.0,29.83,South,184,4.0,6.0,63,0.00,,,0.01,weatherlink.com 1.10,2013-04-24 00:20:00,
2013-04-23 20:35:00,66.3,53.0,29.84,SSE,161,7.0,8.0,63,0.00,,,0.01,weatherlink.com 1.10,2013-04-24 00:35:00,
2013-04-23 20:51:00,66.1,53.0,29.83,South,190,3.0,8.0,63,0.00,,,0.01,weatherlink.com 1.10,2013-04-24 00:51:00,
2013-04-23 21:06:00,65.9,53.0,29.83,South,174,4.0,9.0,63,0.00,,,0.01,weatherlink.com 1.10,2013-04-24 01:06:00,
2013-04-23 21:21:00,66.0,52.0,29.83,South,180,3.0,11.0,62,0.00,,,0.01,weatherlink.com 1.10,2013-04-24 01:21:00,
2013-04-23 21:36:00,65.8,53.0,29.82,South,175,6.0,8.0,63,0.00,,,0.01,weatherlink.com 1.10,2013-04-24 01:36:00,
2013-04-23 21:51:00,65.6,53.0,29.82,South,184,6.0,10.0,63,0.00,,,0.01,weatherlink.com 1.10,2013-04-24 01:51:00,
2013-04-23 22:06:00,65.5,52.0,29.81,SSE,152,6.0,11.0,63,0.00,,,0.01,weatherlink.com 1.10,2013-04-24 02:06:00,
2013-04-23 22:36:00,65.9,52.0,29.81,South,183,5.0,13.0,62,0.00,,,0.01,weatherlink.com 1.10,2013-04-24 02:36:00,
2013-04-23 22:51:00,66.2,53.0,29.81,SE,146,6.0,15.0,62,0.00,,,0.01,weatherlink.com 1.10,2013-04-24 02:51:00,
2013-04-23 23:06:00,66.1,53.0,29.80,SSW,196,11.0,13.0,63,0.00,,,0.01,weatherlink.com 1.10,2013-04-24 03:06:00,
2013-04-23 23:21:00,66.1,53.0,29.81,SW,217,15.0,15.0,63,0.00,,,0.01,weatherlink.com 1.10,2013-04-24 03:21:00,
2013-04-23 23:36:00,66.2,53.0,29.81,South,182,5.0,14.0,63,0.00,,,0.01,weatherlink.com 1.10,2013-04-24 03:36:00,
2013-04-23 23:51:00,66.2,54.0,29.80,SSW,194,6.0,16.0,64,0.00,,,0.01,weatherlink.com 1.10,2013-04-24 03:51:00,